MET'MAP v2.0
soon released !

Expected late october,
this new version will be
more efficient, smarter,
and hosted on a brand new
server x3 powerfull...
...and still free !


Not compatible ?
Try the mobile version !

LOG IN : | Subscribe | Disclaimer | Who is Orbifly ? |
ICAO code :
Legend : VFR Marginal VFR IFR Intensive IFR Very Intensive IFR
Visi :
Ceiling :
>= 8 km
>= 3000ft
5 to 8 km
1000 to 3000 ft
1500m to 5 km
500 to 1000 ft
800 to 1500m
200 to 500 ft
< 800m
< 200 ft

METAR - LELC Murcia San Javier - 27 May 2020 05:07 UTC - Data Source NOAA   


- Airport Elevation : 11 ft
- IATA code : MJV
- No reported NOTAMs.


LELC - Murcia San Javier

Latest METAR recorded : 2015/08/11 08:00 LELC 110800Z 06005KT 010V110 9999 SCT016 29/24 Q1013 NOSIG
TAF TAF LELC
Valid from the 27 at 00:00 until the 28 at 00:00 UTC


262300Z 2700/2724 01010KT 9999 FEW020 TX27/2713Z TN17/2705Z
BECMG 2706/2709 07014KT
PROB40
TEMPO 2710/2719 07015G25KT
BECMG 2720/2723 01010KT

Source NOAA


MET'MAP, your aeronautical weather chart ! - Copyright ORBIFLY December 2007

Programming & Development : Alexandra Zaïnal
Co-Developer : Marc-Olivier Méhu
Technical & hardware support : Manuel Goepfert
Concept & Financing : Baudouin d'Aumeries